createdAt,value
2018-06-01T00:00:19.112Z,19.70
2018-06-01T00:02:45.328Z,19.80
2018-06-01T00:05:11.594Z,19.70
2018-06-01T00:07:37.811Z,19.70
2018-06-01T00:10:04.057Z,19.70
2018-06-01T00:12:30.252Z,19.70
2018-06-01T00:14:56.469Z,19.80
2018-06-01T00:17:22.681Z,19.80
2018-06-01T00:19:48.887Z,19.80
2018-06-01T00:22:15.845Z,19.90
2018-06-01T00:24:42.831Z,19.90
2018-06-01T00:27:09.060Z,19.90
2018-06-01T00:29:35.289Z,20.00
2018-06-01T00:32:01.516Z,20.00
2018-06-01T00:34:27.771Z,19.80
2018-06-01T00:36:54.010Z,19.70
2018-06-01T00:39:20.221Z,19.70
2018-06-01T00:41:46.511Z,19.70
2018-06-01T00:44:12.813Z,19.60
2018-06-01T00:46:39.028Z,19.70
2018-06-01T00:49:05.978Z,19.60
2018-06-01T00:51:32.951Z,19.50
2018-06-01T00:53:59.131Z,19.50
2018-06-01T00:56:25.333Z,19.60
2018-06-01T00:58:51.550Z,19.50
2018-06-01T01:01:17.805Z,19.50
2018-06-01T01:03:44.020Z,19.40
2018-06-01T01:06:13.060Z,19.40
2018-06-01T01:08:40.193Z,19.50
2018-06-01T01:11:07.204Z,19.50
2018-06-01T01:13:33.415Z,19.50
2018-06-01T01:15:59.624Z,19.50
2018-06-01T01:18:26.580Z,19.60
2018-06-01T01:20:52.832Z,19.60
2018-06-01T01:23:19.109Z,19.60
2018-06-01T01:25:46.131Z,19.60
2018-06-01T01:28:13.058Z,19.60
2018-06-01T01:30:39.309Z,19.60
2018-06-01T01:33:05.521Z,19.60
2018-06-01T01:35:31.749Z,19.60
2018-06-01T01:37:57.932Z,19.60
2018-06-01T01:40:24.176Z,19.60
2018-06-01T01:42:50.388Z,19.60
2018-06-01T01:45:16.679Z,19.70
2018-06-01T01:47:42.904Z,19.70
2018-06-01T01:50:09.144Z,19.70
2018-06-01T01:52:36.119Z,19.70
2018-06-01T01:55:02.348Z,19.70
2018-06-01T01:57:28.586Z,19.70
2018-06-01T01:59:54.919Z,19.70
2018-06-01T02:02:21.221Z,19.70
2018-06-01T02:04:47.432Z,19.80
2018-06-01T02:07:14.391Z,19.70
2018-06-01T02:09:41.337Z,19.80
2018-06-01T02:12:07.552Z,19.80
2018-06-01T02:14:34.511Z,19.80
2018-06-01T02:17:00.761Z,19.70
2018-06-01T02:19:26.968Z,19.80
2018-06-01T02:21:53.181Z,19.80
2018-06-01T02:24:20.149Z,19.80
2018-06-01T02:26:46.344Z,19.80
2018-06-01T02:29:12.544Z,19.70
2018-06-01T02:31:38.733Z,19.80
2018-06-01T02:34:05.015Z,19.80
2018-06-01T02:36:31.241Z,19.70
2018-06-01T02:38:58.440Z,19.70
2018-06-01T02:41:24.740Z,19.70
2018-06-01T02:43:50.921Z,19.70
2018-06-01T02:46:17.112Z,19.70
2018-06-01T02:48:43.336Z,19.60
2018-06-01T02:51:09.576Z,19.70
2018-06-01T02:53:35.789Z,19.70
2018-06-01T02:56:02.757Z,19.70
2018-06-01T02:58:28.961Z,19.60
2018-06-01T03:00:55.188Z,19.70
2018-06-01T03:03:22.108Z,19.70
2018-06-01T03:05:48.316Z,19.70
2018-06-01T03:08:14.559Z,19.70
2018-06-01T03:10:40.838Z,19.70
2018-06-01T03:13:07.064Z,19.70
2018-06-01T03:15:33.282Z,19.60
2018-06-01T03:17:59.506Z,19.70
2018-06-01T03:20:25.718Z,19.60
2018-06-01T03:22:51.920Z,19.70
2018-06-01T03:25:18.931Z,19.60
2018-06-01T03:27:45.148Z,19.60
2018-06-01T03:30:11.373Z,19.60
2018-06-01T03:32:37.596Z,19.60
2018-06-01T03:35:03.783Z,19.70
2018-06-01T03:37:29.972Z,19.70
2018-06-01T03:39:56.213Z,19.70
2018-06-01T03:42:22.405Z,19.70
2018-06-01T03:44:48.607Z,19.70
2018-06-01T03:47:15.592Z,19.70
2018-06-01T03:49:41.943Z,19.70
2018-06-01T03:52:08.360Z,19.70
2018-06-01T03:54:34.580Z,19.70
2018-06-01T03:57:00.832Z,19.70
2018-06-01T03:59:27.039Z,19.70
2018-06-01T04:01:53.356Z,19.70
2018-06-01T04:04:19.654Z,19.70
2018-06-01T04:06:46.632Z,19.80
2018-06-01T04:09:12.828Z,19.80
2018-06-01T04:11:39.776Z,19.80
2018-06-01T04:14:06.736Z,19.80
2018-06-01T04:16:32.949Z,19.70
2018-06-01T04:18:59.888Z,19.80
2018-06-01T04:21:26.124Z,19.80
2018-06-01T04:23:52.360Z,19.80
2018-06-01T04:26:18.609Z,19.80
2018-06-01T04:28:44.907Z,19.80
2018-06-01T04:31:11.870Z,19.80
2018-06-01T04:33:38.060Z,19.80
2018-06-01T04:36:04.302Z,19.70
2018-06-01T04:38:31.541Z,19.70
2018-06-01T04:40:57.997Z,19.60
2018-06-01T04:43:24.249Z,19.70
2018-06-01T04:45:50.459Z,19.70
2018-06-01T04:48:16.660Z,19.70
2018-06-01T04:50:42.859Z,19.70
2018-06-01T04:53:09.084Z,19.80
2018-06-01T04:55:35.318Z,19.70
2018-06-01T04:58:01.551Z,19.80
2018-06-01T05:00:28.530Z,19.80
2018-06-01T05:02:57.036Z,19.80
2018-06-01T05:05:27.325Z,19.80
2018-06-01T05:07:54.114Z,19.80
2018-06-01T05:10:20.314Z,19.80
2018-06-01T05:12:46.913Z,19.70
2018-06-01T05:15:13.103Z,19.70
2018-06-01T05:17:39.304Z,19.60
2018-06-01T05:20:05.500Z,19.60
2018-06-01T05:22:31.714Z,19.50
2018-06-01T05:24:59.068Z,19.50
2018-06-01T05:27:25.274Z,19.50
2018-06-01T05:29:51.480Z,19.60
2018-06-01T05:32:17.713Z,19.60
2018-06-01T05:34:43.921Z,19.50
2018-06-01T05:37:10.120Z,19.50
2018-06-01T05:39:36.340Z,19.40
2018-06-01T05:42:02.598Z,19.40
2018-06-01T05:44:28.843Z,19.40
2018-06-01T05:46:55.061Z,19.40
2018-06-01T05:49:21.281Z,19.40
2018-06-01T05:51:47.497Z,19.40
2018-06-01T05:54:13.718Z,19.40
2018-06-01T05:56:40.695Z,19.50
2018-06-01T05:59:06.916Z,19.50
2018-06-01T06:01:33.181Z,19.50
2018-06-01T06:03:59.408Z,19.40
2018-06-01T06:06:25.689Z,19.50
2018-06-01T06:08:51.899Z,19.40
2018-06-01T06:11:18.122Z,19.40
2018-06-01T06:13:45.077Z,19.60
2018-06-01T06:16:12.043Z,19.60
2018-06-01T06:18:38.257Z,19.60
2018-06-01T06:21:05.239Z,19.60
2018-06-01T06:23:31.463Z,19.60
2018-06-01T06:25:57.729Z,19.60
2018-06-01T06:28:23.958Z,19.40
2018-06-01T06:30:50.160Z,19.50
2018-06-01T06:33:16.372Z,19.50
2018-06-01T06:35:42.615Z,19.50
2018-06-01T06:38:08.910Z,19.50
2018-06-01T06:40:35.326Z,19.50
2018-06-01T06:43:02.279Z,19.50
2018-06-01T06:45:29.245Z,19.50
2018-06-01T06:47:55.489Z,19.50
2018-06-01T06:50:21.748Z,19.50
2018-06-01T06:52:47.966Z,19.60
2018-06-01T06:55:14.262Z,19.50
2018-06-01T06:57:40.409Z,19.50
2018-06-01T07:00:06.616Z,19.50
2018-06-01T07:02:32.871Z,19.50
2018-06-01T07:04:59.098Z,19.50
2018-06-01T07:07:25.332Z,19.50
2018-06-01T07:09:51.552Z,19.50
2018-06-01T07:12:17.758Z,19.70
2018-06-01T07:14:44.001Z,19.80
2018-06-01T07:17:10.216Z,20.00
2018-06-01T07:19:36.577Z,20.10
2018-06-01T07:22:02.884Z,20.10
2018-06-01T07:24:29.115Z,20.10
2018-06-01T07:26:55.324Z,20.00
2018-06-01T07:29:21.533Z,20.10
2018-06-01T07:31:47.776Z,20.20
2018-06-01T07:34:14.068Z,20.10
2018-06-01T07:36:40.361Z,20.10
2018-06-01T07:39:07.323Z,20.20
2018-06-01T07:41:33.579Z,20.20
2018-06-01T07:43:59.801Z,20.30
2018-06-01T07:46:26.029Z,20.20
2018-06-01T07:48:53.017Z,20.20
2018-06-01T07:51:19.247Z,20.20
2018-06-01T07:53:45.492Z,20.20
2018-06-01T07:56:11.688Z,20.20
2018-06-01T07:58:37.932Z,20.20
2018-06-01T08:01:04.176Z,20.20
2018-06-01T08:03:30.487Z,20.20
2018-06-01T08:05:57.491Z,20.20
2018-06-01T08:08:23.726Z,20.20
2018-06-01T08:10:49.945Z,20.10
2018-06-01T08:13:16.890Z,20.00
2018-06-01T08:15:43.836Z,20.00
2018-06-01T08:18:10.803Z,20.00
2018-06-01T08:20:37.003Z,20.00
2018-06-01T08:23:04.006Z,20.00
2018-06-01T08:25:30.234Z,19.90
2018-06-01T08:27:56.469Z,20.00
2018-06-01T08:30:22.737Z,20.00
2018-06-01T08:32:49.711Z,20.00
2018-06-01T08:35:15.884Z,20.00
2018-06-01T08:37:42.098Z,20.00
2018-06-01T08:40:08.328Z,19.90
2018-06-01T08:42:34.656Z,20.00
2018-06-01T08:45:00.892Z,20.00
2018-06-01T08:47:27.120Z,19.90
2018-06-01T08:49:53.317Z,19.90
2018-06-01T08:52:20.114Z,19.90
2018-06-01T08:54:46.520Z,19.90
2018-06-01T08:57:12.800Z,19.90
2018-06-01T08:59:38.980Z,19.70
2018-06-01T09:02:05.235Z,19.70
2018-06-01T09:04:31.468Z,19.60
2018-06-01T09:06:57.716Z,19.60
2018-06-01T09:09:23.936Z,19.70
2018-06-01T09:11:50.197Z,19.60
2018-06-01T09:14:16.408Z,19.70
2018-06-01T09:16:42.676Z,19.50
2018-06-01T09:19:09.092Z,19.60
2018-06-01T09:21:36.529Z,19.70
2018-06-01T09:24:05.396Z,19.70
2018-06-01T09:26:32.101Z,19.80
2018-06-01T09:28:58.361Z,19.80
2018-06-01T09:31:25.356Z,19.80
2018-06-01T09:33:51.611Z,19.80
2018-06-01T09:36:18.567Z,19.90
2018-06-01T09:38:45.872Z,19.90
2018-06-01T09:41:12.130Z,19.90
2018-06-01T09:43:38.688Z,20.00
2018-06-01T09:46:05.096Z,20.00
2018-06-01T09:48:31.340Z,20.00
2018-06-01T09:50:58.320Z,20.10
2018-06-01T09:53:24.525Z,20.10
2018-06-01T09:55:50.955Z,20.10
2018-06-01T09:58:17.908Z,20.20
2018-06-01T10:00:50.137Z,20.20
2018-06-01T10:03:17.118Z,20.30
2018-06-01T10:05:43.363Z,20.30
2018-06-01T10:08:09.570Z,20.50
2018-06-01T10:10:36.532Z,20.60
2018-06-01T10:13:02.784Z,20.60
2018-06-01T10:15:29.081Z,20.70
2018-06-01T10:17:55.296Z,20.70
2018-06-01T10:20:22.241Z,20.80
2018-06-01T10:22:48.452Z,20.70
2018-06-01T10:25:15.426Z,20.60
2018-06-01T10:27:41.645Z,20.60
2018-06-01T10:30:07.897Z,20.60
2018-06-01T10:32:34.141Z,20.80
2018-06-01T10:35:00.388Z,20.70
2018-06-01T10:37:26.605Z,20.70
2018-06-01T10:39:52.868Z,20.70
2018-06-01T10:42:19.816Z,20.50
2018-06-01T10:44:46.060Z,20.50
2018-06-01T10:47:12.289Z,20.40
2018-06-01T10:49:38.521Z,20.60
2018-06-01T10:52:05.251Z,20.60
2018-06-01T10:54:31.488Z,20.60
2018-06-01T10:56:57.720Z,20.60
2018-06-01T10:59:23.977Z,20.70
2018-06-01T11:01:50.246Z,20.80
2018-06-01T11:04:17.200Z,21.00
2018-06-01T11:06:43.431Z,21.00
2018-06-01T11:09:10.188Z,21.10
2018-06-01T11:11:36.384Z,21.10
2018-06-01T11:14:03.340Z,21.50
2018-06-01T11:16:29.557Z,21.40
2018-06-01T11:18:56.611Z,21.70
2018-06-01T11:21:22.822Z,21.70
2018-06-01T11:23:49.029Z,21.80
2018-06-01T11:26:15.236Z,21.90
2018-06-01T11:28:41.460Z,21.70
2018-06-01T11:31:08.403Z,21.60
2018-06-01T11:33:34.658Z,21.60
2018-06-01T11:36:00.855Z,21.50
2018-06-01T11:38:27.102Z,21.60
2018-06-01T11:40:53.330Z,21.70
2018-06-01T11:43:19.513Z,21.80
2018-06-01T11:45:45.740Z,21.80
2018-06-01T11:48:11.930Z,22.20
2018-06-01T11:50:38.205Z,22.60
2018-06-01T11:53:04.425Z,22.50
2018-06-01T11:55:30.757Z,22.60
2018-06-01T11:57:56.999Z,22.70
2018-06-01T12:00:23.217Z,22.60
2018-06-01T12:02:49.444Z,22.50
2018-06-01T12:05:15.655Z,22.40
2018-06-01T12:07:42.606Z,22.60
2018-06-01T12:10:08.937Z,22.60
2018-06-01T12:12:35.168Z,22.20
2018-06-01T12:15:01.390Z,22.60
2018-06-01T12:17:27.602Z,22.60
2018-06-01T12:19:54.835Z,22.40
2018-06-01T12:22:21.203Z,22.30
2018-06-01T12:24:47.536Z,22.00
2018-06-01T12:27:13.737Z,22.40
2018-06-01T12:29:40.695Z,22.60
2018-06-01T12:32:07.688Z,22.40
2018-06-01T12:34:33.919Z,22.40
2018-06-01T12:37:00.219Z,22.40
2018-06-01T12:39:26.505Z,22.20
2018-06-01T12:41:52.712Z,22.40
2018-06-01T12:44:19.016Z,22.30
2018-06-01T12:46:45.242Z,22.20
2018-06-01T12:49:11.478Z,22.20
2018-06-01T12:51:37.714Z,22.30
2018-06-01T12:54:04.731Z,22.20
2018-06-01T12:56:31.636Z,22.20
2018-06-01T12:58:57.955Z,22.10
2018-06-01T13:01:25.415Z,22.00
2018-06-01T13:03:51.705Z,22.10
2018-06-01T13:06:17.908Z,22.00
2018-06-01T13:08:44.261Z,21.90
2018-06-01T13:11:10.494Z,21.90
2018-06-01T13:13:36.738Z,21.80
2018-06-01T13:16:02.962Z,21.80
2018-06-01T13:18:29.376Z,21.70
2018-06-01T13:20:55.646Z,21.70
2018-06-01T13:23:21.886Z,21.70
2018-06-01T13:25:48.194Z,21.80
2018-06-01T13:28:14.443Z,21.80
2018-06-01T13:30:41.476Z,21.80
2018-06-01T13:33:07.685Z,21.70
2018-06-01T13:35:33.938Z,21.60
2018-06-01T13:38:00.203Z,21.50
2018-06-01T13:40:26.625Z,21.50
2018-06-01T13:42:52.916Z,21.20
2018-06-01T13:45:19.169Z,21.30
2018-06-01T13:47:46.122Z,21.30
2018-06-01T13:50:12.417Z,21.30
2018-06-01T13:52:38.640Z,21.30
2018-06-01T13:55:04.891Z,21.40
2018-06-01T13:57:31.140Z,21.30
2018-06-01T13:59:59.881Z,21.20
2018-06-01T14:02:26.206Z,21.20
2018-06-01T14:04:52.458Z,21.40
2018-06-01T14:07:18.673Z,21.50
2018-06-01T14:09:44.892Z,21.50
2018-06-01T14:12:11.249Z,21.30
2018-06-01T14:14:37.460Z,21.10
2018-06-01T14:17:03.720Z,21.10
2018-06-01T14:19:30.834Z,21.00
2018-06-01T14:21:57.082Z,21.00
2018-06-01T14:24:24.065Z,20.90
2018-06-01T14:26:50.321Z,20.90
2018-06-01T14:29:16.520Z,20.80
2018-06-01T14:31:42.747Z,21.00
2018-06-01T14:34:08.965Z,21.00
2018-06-01T14:36:35.204Z,20.90
2018-06-01T14:39:01.416Z,20.90
2018-06-01T14:41:28.403Z,20.80
2018-06-01T14:43:54.684Z,20.80
2018-06-01T14:46:21.644Z,20.80
2018-06-01T14:48:47.865Z,20.80
2018-06-01T14:51:14.746Z,20.80
2018-06-01T14:53:40.980Z,20.70
2018-06-01T14:56:07.750Z,20.30
2018-06-01T14:58:34.742Z,20.50
2018-06-01T15:01:01.050Z,20.50
2018-06-01T15:03:27.272Z,20.60
2018-06-01T15:05:54.239Z,20.10
2018-06-01T15:08:20.526Z,20.10
2018-06-01T15:10:46.742Z,20.20
2018-06-01T15:13:12.973Z,20.20
2018-06-01T15:15:39.216Z,20.30
2018-06-01T15:18:05.432Z,20.30
2018-06-01T15:20:31.690Z,20.20
2018-06-01T15:22:57.949Z,20.30
2018-06-01T15:25:24.156Z,20.10
2018-06-01T15:27:50.394Z,20.20
2018-06-01T15:30:16.648Z,20.20
2018-06-01T15:32:43.633Z,20.00
2018-06-01T15:35:10.633Z,20.10
2018-06-01T15:37:36.868Z,20.10
2018-06-01T15:40:03.095Z,20.10
2018-06-01T15:42:29.360Z,20.00
2018-06-01T15:44:56.323Z,20.00
2018-06-01T15:47:22.603Z,20.00
2018-06-01T15:49:48.876Z,20.00
2018-06-01T15:52:15.123Z,20.00
2018-06-01T15:54:41.321Z,20.00
2018-06-01T15:57:07.520Z,19.90
2018-06-01T15:59:33.767Z,19.90
2018-06-01T16:02:00.759Z,19.70
2018-06-01T16:04:26.993Z,19.70
2018-06-01T16:06:53.319Z,19.80
2018-06-01T16:09:19.817Z,19.90
2018-06-01T16:11:46.110Z,20.00
2018-06-01T16:14:12.557Z,20.00
2018-06-01T16:16:38.812Z,19.90
2018-06-01T16:19:05.004Z,20.10
2018-06-01T16:21:31.253Z,19.90
2018-06-01T16:23:57.516Z,20.00
2018-06-01T16:26:23.784Z,19.90
2018-06-01T16:28:50.121Z,20.00
2018-06-01T16:31:16.326Z,20.00
2018-06-01T16:33:42.613Z,20.10
2018-06-01T16:36:11.524Z,20.10
2018-06-01T16:38:37.726Z,20.00
2018-06-01T16:41:04.173Z,19.90
2018-06-01T16:43:30.419Z,20.00
2018-06-01T16:45:57.733Z,20.10
2018-06-01T16:48:24.044Z,19.80
2018-06-01T16:50:50.312Z,19.90
2018-06-01T16:53:16.509Z,19.90
2018-06-01T16:55:44.440Z,19.80
2018-06-01T16:58:10.725Z,19.80
2018-06-01T17:00:37.743Z,19.70
2018-06-01T17:03:05.079Z,19.70
2018-06-01T17:05:31.356Z,19.70
2018-06-01T17:07:57.613Z,19.70
2018-06-01T17:10:23.860Z,19.80
2018-06-01T17:12:51.558Z,19.70
2018-06-01T17:15:18.548Z,19.70
2018-06-01T17:17:44.825Z,19.70
2018-06-01T17:20:11.108Z,19.50
2018-06-01T17:22:37.354Z,19.60
2018-06-01T17:25:03.603Z,19.70
2018-06-01T17:27:30.609Z,19.60
2018-06-01T17:29:56.837Z,19.60
2018-06-01T17:32:23.036Z,19.60
2018-06-01T17:34:49.319Z,19.60
2018-06-01T17:37:15.540Z,19.50
2018-06-01T17:39:41.746Z,19.50
2018-06-01T17:42:08.041Z,19.50
2018-06-01T17:44:34.241Z,19.40
2018-06-01T17:47:00.474Z,19.40
2018-06-01T17:49:26.739Z,19.40
2018-06-01T17:51:53.029Z,19.40
2018-06-01T17:54:19.270Z,19.40
2018-06-01T17:56:46.253Z,19.30
2018-06-01T17:59:12.530Z,19.30
2018-06-01T18:01:38.816Z,19.30
2018-06-01T18:04:05.092Z,19.30
2018-06-01T18:06:31.377Z,19.10
2018-06-01T18:08:57.640Z,19.10
2018-06-01T18:11:25.356Z,19.10
2018-06-01T18:13:51.599Z,19.10
2018-06-01T18:16:17.832Z,19.10
2018-06-01T18:18:44.107Z,19.00
2018-06-01T18:21:12.372Z,19.00
2018-06-01T18:23:39.345Z,18.90
2018-06-01T18:26:05.580Z,19.00
2018-06-01T18:28:33.596Z,19.00
2018-06-01T18:30:59.836Z,19.00
2018-06-01T18:33:26.041Z,19.00
2018-06-01T18:35:52.561Z,19.00
2018-06-01T18:38:18.819Z,18.90
2018-06-01T18:40:45.894Z,19.00
2018-06-01T18:43:12.888Z,18.90
2018-06-01T18:45:39.110Z,19.00
2018-06-01T18:48:05.349Z,18.90
2018-06-01T18:50:31.616Z,18.90
2018-06-01T18:52:58.623Z,18.80
2018-06-01T18:55:24.829Z,18.80
2018-06-01T18:57:51.080Z,18.90
2018-06-01T19:00:17.348Z,18.80
2018-06-01T19:02:44.307Z,18.80
2018-06-01T19:05:11.263Z,18.90
2018-06-01T19:07:37.485Z,18.80
2018-06-01T19:10:03.733Z,18.80
2018-06-01T19:12:29.942Z,18.80
2018-06-01T19:14:57.049Z,18.70
2018-06-01T19:17:24.573Z,18.70
2018-06-01T19:19:50.793Z,18.70
2018-06-01T19:22:17.054Z,18.70
2018-06-01T19:24:43.301Z,18.70
2018-06-01T19:27:09.533Z,18.70
2018-06-01T19:29:36.504Z,18.60
2018-06-01T19:32:02.728Z,18.60
2018-06-01T19:34:29.568Z,18.70
2018-06-01T19:36:55.855Z,18.60
2018-06-01T19:39:22.125Z,18.60
2018-06-01T19:41:48.360Z,18.60
2018-06-01T19:44:14.629Z,18.60
2018-06-01T19:46:40.960Z,18.70
2018-06-01T19:49:07.186Z,18.60
2018-06-01T19:51:33.393Z,18.70
2018-06-01T19:53:59.710Z,18.70
2018-06-01T19:56:25.972Z,18.60
2018-06-01T19:58:52.237Z,18.60
2018-06-01T20:01:18.489Z,18.60
2018-06-01T20:03:44.729Z,18.70
2018-06-01T20:06:11.408Z,18.50
2018-06-01T20:08:37.640Z,18.50
2018-06-01T20:11:03.918Z,18.60
2018-06-01T20:13:32.941Z,18.50
2018-06-01T20:15:59.518Z,18.50
2018-06-01T20:18:25.739Z,18.50
2018-06-01T20:20:52.712Z,18.50
2018-06-01T20:23:18.941Z,18.50
2018-06-01T20:25:46.080Z,18.50
2018-06-01T20:28:12.363Z,18.50
2018-06-01T20:30:38.853Z,18.50
2018-06-01T20:33:06.026Z,18.50
2018-06-01T20:35:32.287Z,18.50
2018-06-01T20:37:59.295Z,18.50
2018-06-01T20:40:25.503Z,18.50
2018-06-01T20:42:51.748Z,18.40
2018-06-01T20:45:17.977Z,18.30
2018-06-01T20:47:45.138Z,18.30
2018-06-01T20:50:11.382Z,18.40
2018-06-01T20:52:37.660Z,18.40
2018-06-01T20:55:04.701Z,18.40
2018-06-01T20:57:31.685Z,18.40
2018-06-01T20:59:57.923Z,18.40
2018-06-01T21:02:24.186Z,18.30
2018-06-01T21:04:51.190Z,18.30
2018-06-01T21:07:17.414Z,18.30
2018-06-01T21:09:43.708Z,18.30
2018-06-01T21:12:10.026Z,18.30
2018-06-01T21:14:36.304Z,18.30
2018-06-01T21:17:02.578Z,18.30
2018-06-01T21:19:29.558Z,18.30
2018-06-01T21:21:55.834Z,18.30
2018-06-01T21:24:22.046Z,18.20
2018-06-01T21:26:48.295Z,18.20
2018-06-01T21:29:16.748Z,18.20
2018-06-01T21:31:42.965Z,18.20
2018-06-01T21:34:09.223Z,18.20
2018-06-01T21:36:35.493Z,18.20
2018-06-01T21:39:01.741Z,18.20
2018-06-01T21:41:27.971Z,18.20
2018-06-01T21:43:54.232Z,18.20
2018-06-01T21:46:20.478Z,18.20
2018-06-01T21:48:47.477Z,18.20
2018-06-01T21:51:15.112Z,18.20
2018-06-01T21:53:41.368Z,18.20
2018-06-01T21:56:07.594Z,18.20
2018-06-01T21:58:33.816Z,18.10
2018-06-01T22:01:00.056Z,18.00
2018-06-01T22:03:26.279Z,18.00
2018-06-01T22:05:52.535Z,18.00
2018-06-01T22:08:18.874Z,18.00
2018-06-01T22:10:45.835Z,18.10
2018-06-01T22:13:12.934Z,18.10
2018-06-01T22:15:39.149Z,18.10
2018-06-01T22:18:05.369Z,18.10
2018-06-01T22:20:31.576Z,18.00
2018-06-01T22:22:59.053Z,18.00
2018-06-01T22:25:25.409Z,18.00
2018-06-01T22:27:51.882Z,18.00
2018-06-01T22:30:18.857Z,18.00
2018-06-01T22:32:45.153Z,18.00
2018-06-01T22:35:12.116Z,17.90
2018-06-01T22:37:39.042Z,17.90
2018-06-01T22:40:05.992Z,17.90
2018-06-01T22:42:32.944Z,17.80
2018-06-01T22:44:59.948Z,17.80
2018-06-01T22:47:26.189Z,17.80
2018-06-01T22:49:52.391Z,17.80
2018-06-01T22:52:18.633Z,17.90
2018-06-01T22:54:44.849Z,17.90
2018-06-01T22:57:11.988Z,17.90
2018-06-01T22:59:38.180Z,17.80
2018-06-01T23:02:05.202Z,17.80
2018-06-01T23:04:31.453Z,17.80
2018-06-01T23:06:58.469Z,17.90
2018-06-01T23:09:24.675Z,17.90
2018-06-01T23:11:50.914Z,17.90
2018-06-01T23:14:17.145Z,17.90
2018-06-01T23:16:43.360Z,17.90
2018-06-01T23:19:09.643Z,17.90
2018-06-01T23:21:36.601Z,17.90
2018-06-01T23:24:02.852Z,17.90
2018-06-01T23:26:29.896Z,17.80
2018-06-01T23:28:56.138Z,17.80
2018-06-01T23:31:22.443Z,17.80
2018-06-01T23:33:48.667Z,17.90
2018-06-01T23:36:14.887Z,17.80
2018-06-01T23:38:41.156Z,17.90
2018-06-01T23:41:07.440Z,17.90
2018-06-01T23:43:33.678Z,17.90
2018-06-01T23:45:59.916Z,17.80
2018-06-01T23:48:26.165Z,17.80
2018-06-01T23:50:52.420Z,17.80
2018-06-01T23:53:18.644Z,17.80
2018-06-01T23:55:44.862Z,17.90
2018-06-01T23:58:11.861Z,17.80
